Time;durP1;ratioP1;P1;durP2;ratioP2;P2;SDS_P1;SDS_P2;PMS_P1;PMS_P2;Temp;Humidity;BMP_temperature;BMP_pressure;BME280_temperature;BME280_humidity;BME280_pressure;Samples;Min_cycle;Max_cycle;Signal;HPM_P1;HPM_P2
2023/03/13 00:01:16;;;;;;;25.90;4.75;;;;;;;10.19;86.27;99992.09;5063515;28;20045;-49
2023/03/13 00:03:43;;;;;;;27.48;4.60;;;;;;;10.24;86.02;99988.94;5070263;28;20049;-50
2023/03/13 00:06:10;;;;;;;30.45;5.13;;;;;;;10.26;86.35;99979.84;5065223;28;20053;-50
2023/03/13 00:08:37;;;;;;;32.40;5.82;;;;;;;10.23;86.07;99968.75;5070017;28;20500;-53
2023/03/13 00:11:05;;;;;;;37.75;5.47;;;;;;;10.19;86.43;99960.31;5062142;28;20068;-53
2023/03/13 00:13:32;;;;;;;32.35;4.97;;;;;;;10.19;86.57;99955.00;5070043;28;20079;-52
2023/03/13 00:16:01;;;;;;;34.92;5.07;;;;;;;10.24;86.59;99951.81;5069474;28;20106;-52
2023/03/13 00:18:27;;;;;;;32.20;4.90;;;;;;;10.18;87.22;99935.59;5065209;28;20037;-50
2023/03/13 00:21:09;;;;;;;26.73;4.72;;;;;;;10.19;87.30;99941.75;5069408;28;20514;-51
2023/03/13 00:23:37;;;;;;;32.75;5.15;;;;;;;10.04;87.75;99939.00;5065131;28;20045;-51
2023/03/13 00:26:06;;;;;;;40.13;5.10;;;;;;;10.12;87.60;99928.34;5068947;28;20094;-51
2023/03/13 00:28:35;;;;;;;28.70;5.15;;;;;;;10.23;87.58;99929.81;5061638;28;20103;-50
2023/03/13 00:31:05;;;;;;;30.98;5.15;;;;;;;10.34;86.66;99912.72;5069572;28;20048;-51
2023/03/13 00:33:33;;;;;;;28.05;4.43;;;;;;;10.31;87.41;99908.56;5064682;28;20045;-51
2023/03/13 00:36:01;;;;;;;29.15;4.45;;;;;;;10.37;87.99;99907.09;5069137;28;20090;-51
2023/03/13 00:38:30;;;;;;;33.53;5.07;;;;;;;10.34;88.98;99894.97;5064378;28;20490;-51
2023/03/13 00:40:59;;;;;;;28.92;5.13;;;;;;;10.45;88.83;99904.38;5069167;28;20049;-52
2023/03/13 00:43:27;;;;;;;36.53;5.55;;;;;;;10.34;88.10;99899.47;5063505;28;20059;-51
2023/03/13 00:45:54;;;;;;;27.52;5.25;;;;;;;10.21;89.80;99901.81;5065888;28;20083;-51
2023/03/13 00:48:21;;;;;;;33.58;4.90;;;;;;;10.15;89.95;99893.56;5065134;28;20045;-51
2023/03/13 00:50:48;;;;;;;31.80;5.22;;;;;;;10.07;90.71;99895.41;5051206;28;20434;-52
2023/03/13 00:53:15;;;;;;;36.60;5.53;;;;;;;10.03;91.69;99886.16;5055755;28;20045;-52
2023/03/13 00:56:00;;;;;;;38.90;5.18;;;;;;;10.04;91.17;99887.78;5051291;28;20111;-50
2023/03/13 00:58:30;;;;;;;33.13;5.28;;;;;;;9.92;92.30;99866.97;5055697;28;20037;-48
2023/03/13 01:01:04;;;;;;;30.35;5.15;;;;;;;9.96;92.21;99862.16;5047469;28;20049;-50
2023/03/13 01:03:31;;;;;;;42.10;6.13;;;;;;;9.81;94.11;99859.41;5055345;28;20056;-49
2023/03/13 01:06:02;;;;;;;27.98;4.30;;;;;;;9.80;94.69;99869.19;5050968;28;20044;-51
2023/03/13 01:08:31;;;;;;;28.35;4.78;;;;;;;9.81;95.00;99851.47;5055489;28;20051;-51
2023/03/13 01:11:01;;;;;;;28.77;4.68;;;;;;;9.81;95.60;99859.41;5050839;28;20044;-51
2023/03/13 01:13:29;;;;;;;27.27;5.15;;;;;;;9.74;96.14;99848.66;5054492;28;20079;-51
2023/03/13 01:15:56;;;;;;;30.17;4.97;;;;;;;9.71;96.75;99843.69;5050810;28;20056;-52
2023/03/13 01:18:23;;;;;;;29.83;4.70;;;;;;;9.67;97.19;99829.13;5052001;28;20049;-52
2023/03/13 01:20:49;;;;;;;27.98;4.93;;;;;;;9.64;97.43;99829.50;5054859;28;20041;-51
2023/03/13 01:23:17;;;;;;;30.77;5.22;;;;;;;9.69;96.92;99824.50;5050603;28;20048;-51
2023/03/13 01:25:43;;;;;;;28.40;5.55;;;;;;;9.68;97.28;99822.00;5054966;28;20052;-49
2023/03/13 01:28:10;;;;;;;32.22;4.78;;;;;;;9.74;96.93;99816.88;5050609;28;20037;-52
2023/03/13 01:30:37;;;;;;;27.40;4.80;;;;;;;9.78;96.63;99812.88;5055352;28;20057;-51
2023/03/13 01:33:03;;;;;;;24.45;5.72;;;;;;;9.88;96.58;99814.53;5047337;28;20443;-51
2023/03/13 01:35:30;;;;;;;43.60;5.80;;;;;;;9.85;96.95;99805.06;5051769;28;20049;-52
2023/03/13 01:37:58;;;;;;;37.88;5.65;;;;;;;9.96;96.62;99807.34;5050163;28;20098;-51
2023/03/13 01:40:25;;;;;;;25.90;5.85;;;;;;;10.02;95.83;99805.00;5054046;28;20127;-52
2023/03/13 01:42:54;;;;;;;40.50;5.45;;;;;;;10.02;97.06;99797.06;5050011;28;20441;-52
2023/03/13 01:46:01;;;;;;;34.75;6.40;;;;;;;10.02;98.62;99789.91;5054726;28;20053;-51
2023/03/13 01:49:14;;;;;;;29.50;4.80;;;;;;;9.93;100.00;99789.16;5046647;28;20041;-52
2023/03/13 01:51:54;;;;;;;30.92;3.95;;;;;;;9.98;100.00;99767.44;5054416;28;20526;-50
2023/03/13 01:54:24;;;;;;;;;;;;;;;9.82;100.00;99763.03;5050662;28;20044;-50
2023/03/13 01:56:56;;;;;;;28.20;4.25;;;;;;;9.77;100.00;99758.25;5053938;28;19921;-51
2023/03/13 01:59:27;;;;;;;33.20;3.95;;;;;;;9.73;100.00;99748.19;5050071;28;20056;-52
2023/03/13 02:01:57;;;;;;;35.92;4.75;;;;;;;9.68;100.00;99743.41;5053175;28;20045;-51
2023/03/13 02:04:29;;;;;;;29.38;4.50;;;;;;;9.73;100.00;99743.72;5046509;28;20280;-52
2023/03/13 02:07:05;;;;;;;26.33;4.70;;;;;;;9.73;100.00;99735.78;5054284;28;20044;-50
2023/03/13 02:09:34;;;;;;;25.20;4.03;;;;;;;9.67;100.00;99725.88;5050858;28;20068;-51
2023/03/13 02:12:23;;;;;;;25.58;4.07;;;;;;;9.54;100.00;99718.47;5054545;28;20053;-52
2023/03/13 02:14:50;;;;;;;31.15;4.30;;;;;;;9.57;100.00;99718.13;5049673;28;20025;-52
2023/03/13 02:17:17;;;;;;;30.50;4.07;;;;;;;9.58;100.00;99713.66;5053720;28;20049;-50
2023/03/13 02:19:50;;;;;;;26.10;4.15;;;;;;;9.60;100.00;99707.22;5048783;28;20186;-49
2023/03/13 02:22:38;;;;;;;22.02;3.95;;;;;;;9.70;100.00;99698.22;5050642;28;20079;-49
2023/03/13 02:28:08;;;;;;;28.15;4.38;;;;;;;9.67;100.00;99696.72;5070178;28;20153;-51
2023/03/13 02:30:40;;;;;;;25.67;4.68;;;;;;;9.72;100.00;99693.56;5066258;28;20044;-50
2023/03/13 02:33:08;;;;;;;23.88;4.30;;;;;;;9.75;100.00;99698.50;5070391;28;20047;-52
2023/03/13 02:35:35;;;;;;;20.08;4.25;;;;;;;9.65;100.00;99690.78;5065870;28;20071;-51
2023/03/13 02:38:09;;;;;;;21.80;4.03;;;;;;;9.69;100.00;99689.44;5067000;28;20102;-51
2023/03/13 02:40:40;;;;;;;25.27;4.30;;;;;;;9.60;100.00;99672.78;5070428;28;20052;-50
2023/03/13 02:43:17;;;;;;;24.02;4.47;;;;;;;9.68;100.00;99674.56;5065801;28;20036;-52
2023/03/13 02:46:13;;;;;;;25.52;3.97;;;;;;;9.69;100.00;99670.91;5070234;28;20053;-52
2023/03/13 02:48:47;;;;;;;26.10;4.88;;;;;;;9.70;100.00;99669.91;5066458;28;20072;-51
2023/03/13 02:51:35;;;;;;;21.38;4.03;;;;;;;9.66;100.00;99662.47;5070238;28;20080;-51
2023/03/13 02:54:07;;;;;;;28.20;4.00;;;;;;;9.71;100.00;99663.59;5066601;28;20072;-52
2023/03/13 02:56:37;;;;;;;20.95;3.85;;;;;;;9.78;100.00;99653.97;5069660;28;20108;-51
2023/03/13 02:59:05;;;;;;;15.25;3.90;;;;;;;9.72;100.00;99641.44;5065655;28;20059;-51
2023/03/13 03:01:34;;;;;;;19.27;4.00;;;;;;;9.74;100.00;99638.59;5069171;28;20459;-50
2023/03/13 03:04:01;;;;;;;20.48;3.60;;;;;;;9.72;100.00;99628.19;5065219;28;20396;-51
2023/03/13 03:06:28;;;;;;;20.70;3.42;;;;;;;9.79;100.00;99615.88;5069640;28;20552;-52
2023/03/13 03:08:55;;;;;;;14.25;3.25;;;;;;;9.78;100.00;99613.41;5062038;28;20064;-49
2023/03/13 03:11:25;;;;;;;18.65;3.67;;;;;;;9.74;100.00;99597.06;5069478;28;20446;-50
2023/03/13 03:13:58;;;;;;;17.83;3.10;;;;;;;9.79;100.00;99605.28;5065429;28;20135;-50
2023/03/13 03:16:26;;;;;;;14.13;3.30;;;;;;;9.87;100.00;99611.53;5069053;28;20450;-51
2023/03/13 03:18:52;;;;;;;16.67;2.78;;;;;;;9.85;100.00;99622.31;5064969;28;20079;-51
2023/03/13 03:21:20;;;;;;;17.70;3.45;;;;;;;9.88;100.00;99623.78;5069558;28;20064;-48
2023/03/13 03:23:46;;;;;;;17.13;2.97;;;;;;;10.03;100.00;99621.19;5065175;28;20277;-50
2023/03/13 03:26:13;;;;;;;17.25;2.80;;;;;;;9.98;100.00;99617.22;5065143;28;20041;-52
2023/03/13 03:28:40;;;;;;;14.13;2.30;;;;;;;9.96;100.00;99603.34;5069576;28;20490;-51
2023/03/13 03:31:13;;;;;;;10.43;2.42;;;;;;;9.91;100.00;99605.69;5064646;28;20037;-51
2023/03/13 03:33:41;;;;;;;11.95;2.42;;;;;;;10.04;100.00;99615.72;5069275;28;20052;-51
2023/03/13 03:36:15;;;;;;;11.85;2.40;;;;;;;10.00;100.00;99609.09;5059386;28;20402;-51
2023/03/13 03:38:44;;;;;;;11.80;2.50;;;;;;;10.12;100.00;99614.81;5058359;28;20051;-49
2023/03/13 03:41:14;;;;;;;9.23;2.22;;;;;;;10.17;100.00;99612.47;5047924;28;20045;-50
2023/03/13 03:43:42;;;;;;;11.07;1.90;;;;;;;10.27;100.00;99615.66;5055953;28;20052;-52
2023/03/13 03:46:13;;;;;;;12.68;2.05;;;;;;;10.31;100.00;99598.44;5051152;28;20045;-51
2023/03/13 03:48:40;;;;;;;9.52;1.90;;;;;;;10.23;100.00;99595.84;5055727;28;20057;-50
2023/03/13 03:51:09;;;;;;;5.65;1.70;;;;;;;10.32;100.00;99588.66;5051263;28;20067;-51
2023/03/13 03:53:39;;;;;;;7.65;1.70;;;;;;;10.30;100.00;99590.66;5054238;28;20495;-50
2023/03/13 03:56:06;;;;;;;7.53;1.60;;;;;;;10.42;100.00;99599.81;5047548;28;20048;-50
2023/03/13 03:58:36;;;;;;;6.68;1.80;;;;;;;10.48;100.00;99607.06;5055406;28;20041;-50
2023/03/13 04:01:10;;;;;;;7.68;1.95;;;;;;;10.57;100.00;99607.81;5054751;28;20052;-52
2023/03/13 04:03:37;;;;;;;4.70;1.90;;;;;;;10.71;100.00;99614.13;5051137;28;20133;-48
2023/03/13 04:06:05;;;;;;;6.07;1.75;;;;;;;10.70;100.00;99608.00;5055223;28;20045;-51
2023/03/13 04:08:32;;;;;;;7.35;1.60;;;;;;;10.72;100.00;99605.97;5050722;28;20048;-52
2023/03/13 04:11:00;;;;;;;9.25;1.98;;;;;;;10.83;100.00;99590.63;5055143;28;20083;-52
2023/03/13 04:13:29;;;;;;;7.75;1.98;;;;;;;10.94;100.00;99587.50;5047571;28;20510;-50
2023/03/13 04:15:57;;;;;;;9.43;1.80;;;;;;;11.00;100.00;99586.75;5054694;28;20422;-51
2023/03/13 04:18:24;;;;;;;4.70;1.80;;;;;;;11.06;100.00;99578.06;5053284;28;20045;-51
2023/03/13 04:20:59;;;;;;;5.82;2.00;;;;;;;11.13;100.00;99575.47;5053023;28;20033;-50
2023/03/13 04:23:26;;;;;;;6.32;1.90;;;;;;;11.09;100.00;99569.72;5052285;28;20045;-50
2023/03/13 04:25:53;;;;;;;5.18;1.90;;;;;;;11.09;100.00;99572.38;5053590;28;20094;-50
2023/03/13 04:28:20;;;;;;;6.22;1.77;;;;;;;11.18;100.00;99564.31;5053593;28;20041;-50
2023/03/13 04:30:47;;;;;;;6.57;1.95;;;;;;;11.26;100.00;99573.00;5049060;28;20052;-52
2023/03/13 04:33:35;;;;;;;8.90;1.73;;;;;;;11.17;100.00;99571.47;5054589;28;20052;-53
2023/03/13 04:36:15;;;;;;;6.50;2.17;;;;;;;11.32;100.00;99564.28;5050176;28;20502;-49
2023/03/13 04:38:51;;;;;;;4.75;1.75;;;;;;;11.37;100.00;99574.34;5053954;28;20052;-50
2023/03/13 04:41:38;;;;;;;5.28;1.80;;;;;;;11.46;100.00;99567.91;5050058;28;20068;-49
2023/03/13 04:44:13;;;;;;;6.93;1.80;;;;;;;11.46;100.00;99564.41;5054195;28;20057;-49
2023/03/13 04:47:01;;;;;;;7.70;2.10;;;;;;;11.56;100.00;99561.44;5046188;28;20045;-49
2023/03/13 04:49:47;;;;;;;4.22;1.75;;;;;;;11.49;100.00;99556.06;5053363;28;20107;-50
2023/03/13 04:52:34;;;;;;;5.80;1.85;;;;;;;11.55;100.00;99562.44;5049990;28;20041;-50
2023/03/13 04:55:11;;;;;;;7.70;2.00;;;;;;;11.58;100.00;99565.56;5054017;28;20047;-51
2023/03/13 04:57:47;;;;;;;5.13;1.70;;;;;;;11.67;100.00;99559.09;5049690;28;20087;-52
2023/03/13 05:00:32;;;;;;;4.55;1.95;;;;;;;11.67;100.00;99553.78;5053696;28;20103;-52
2023/03/13 05:03:19;;;;;;;7.07;1.90;;;;;;;11.74;100.00;99542.41;5046123;28;20060;-53
2023/03/13 05:05:53;;;;;;;4.43;1.83;;;;;;;11.69;100.00;99557.06;5054032;28;20076;-51
2023/03/13 05:08:39;;;;;;;4.72;1.70;;;;;;;11.68;100.00;99544.00;5049784;28;20099;-51
2023/03/13 05:11:26;;;;;;;4.25;1.90;;;;;;;11.77;100.00;99542.84;5053666;28;20096;-52
2023/03/13 05:14:13;;;;;;;6.95;2.30;;;;;;;11.79;100.00;99519.56;5049590;28;20056;-56
2023/03/13 05:17:00;;;;;;;5.45;2.47;;;;;;;11.86;100.00;99524.94;5053317;28;20044;-52
2023/03/13 05:19:47;;;;;;;5.10;2.15;;;;;;;11.98;100.00;99523.44;5047549;28;20041;-51
2023/03/13 05:22:22;;;;;;;5.63;2.15;;;;;;;11.98;100.00;99523.44;5053989;28;20099;-50
2023/03/13 05:25:09;;;;;;;7.70;2.47;;;;;;;11.94;100.00;99527.50;5049350;28;20447;-51
2023/03/13 05:27:56;;;;;;;8.48;2.50;;;;;;;12.12;100.00;99523.53;5052857;28;20049;-48
2023/03/13 05:30:42;;;;;;;8.55;2.50;;;;;;;12.02;100.00;99511.38;5049606;28;20048;-49
2023/03/13 05:33:20;;;;;;;9.10;2.65;;;;;;;11.96;100.00;99519.31;5052476;28;20075;-50
2023/03/13 05:36:00;;;;;;;6.40;2.45;;;;;;;12.07;100.00;99519.59;5047370;28;20120;-49
2023/03/13 05:38:37;;;;;;;6.50;2.50;;;;;;;11.99;100.00;99518.91;5052217;28;20486;-50
2023/03/13 05:41:11;;;;;;;8.27;2.45;;;;;;;12.03;100.00;99514.88;5048880;28;20048;-51
2023/03/13 05:43:57;;;;;;;6.15;2.60;;;;;;;12.02;100.00;99526.50;5052928;28;20041;-51
2023/03/13 05:46:32;;;;;;;8.85;2.42;;;;;;;11.99;100.00;99518.91;5048701;28;20132;-51
2023/03/13 05:49:20;;;;;;;7.30;2.33;;;;;;;12.13;100.00;99533.16;5053388;28;20531;-53
2023/03/13 05:52:07;;;;;;;9.82;2.67;;;;;;;12.05;100.00;99540.25;5045349;28;20056;-49
2023/03/13 05:54:53;;;;;;;9.27;2.50;;;;;;;12.10;100.00;99529.84;5033111;28;20517;-51
2023/03/13 05:57:31;;;;;;;7.90;2.90;;;;;;;12.15;100.00;99520.47;5028400;28;20049;-53
2023/03/13 06:00:07;;;;;;;6.88;2.20;;;;;;;12.19;100.00;99521.75;5032930;28;20037;-52
2023/03/13 06:02:52;;;;;;;7.43;2.60;;;;;;;12.21;100.00;99517.06;5008049;28;20053;-52
2023/03/13 06:05:25;;;;;;;6.18;2.38;;;;;;;12.21;100.00;99527.69;5032632;28;20057;-52
2023/03/13 06:07:52;;;;;;;8.65;2.50;;;;;;;12.22;100.00;99527.47;5024295;28;20057;-51
2023/03/13 06:10:18;;;;;;;6.55;2.60;;;;;;;12.22;100.00;99527.47;5032972;28;20076;-50
2023/03/13 06:12:53;;;;;;;9.20;2.60;;;;;;;12.19;100.00;99519.09;5028434;28;20049;-53
2023/03/13 06:15:22;;;;;;;7.47;2.50;;;;;;;12.28;100.00;99528.56;5032997;28;20045;-51
2023/03/13 06:17:54;;;;;;;;;;;;;;;12.35;100.00;99537.41;5028766;28;20149;-52
2023/03/13 06:20:21;;;;;;;7.03;2.55;;;;;;;12.29;100.00;99527.53;5033124;28;19928;-52
2023/03/13 06:22:47;;;;;;;6.82;2.80;;;;;;;12.34;100.00;99524.31;5031972;28;20690;-51
2023/03/13 06:25:14;;;;;;;9.85;2.92;;;;;;;12.45;99.39;99521.09;5049211;28;20094;-49
2023/03/13 06:27:41;;;;;;;6.88;2.33;;;;;;;12.46;99.31;99515.56;5052344;28;20049;-52
2023/03/13 06:30:09;;;;;;;10.40;3.03;;;;;;;12.59;98.66;99516.66;5048223;28;20491;-50
2023/03/13 06:32:36;;;;;;;7.50;2.30;;;;;;;12.51;98.93;99517.63;5053194;28;20060;-51
2023/03/13 06:35:03;;;;;;;7.00;2.50;;;;;;;12.63;97.73;99517.91;5048087;28;20068;-52
2023/03/13 06:37:30;;;;;;;9.75;2.63;;;;;;;12.63;97.47;99520.56;5052400;28;20403;-49
2023/03/13 06:39:57;;;;;;;8.93;2.67;;;;;;;12.71;97.02;99517.72;5047559;28;20053;-51
2023/03/13 06:42:23;;;;;;;7.50;2.38;;;;;;;12.67;97.23;99522.63;5049419;28;20053;-52
2023/03/13 06:44:50;;;;;;;8.65;2.80;;;;;;;12.67;97.29;99521.81;5052158;28;20056;-51
2023/03/13 06:47:17;;;;;;;7.30;2.30;;;;;;;12.65;97.06;99534.50;5047670;28;20049;-50
2023/03/13 06:49:44;;;;;;;7.38;2.53;;;;;;;12.67;96.44;99533.25;5052362;28;20390;-50
2023/03/13 06:52:11;;;;;;;11.27;2.83;;;;;;;12.71;96.52;99551.50;5047647;28;20114;-51
2023/03/13 06:54:37;;;;;;;9.07;2.95;;;;;;;12.78;95.59;99542.53;5052206;28;20049;-53
2023/03/13 06:57:04;;;;;;;6.15;2.50;;;;;;;12.78;95.36;99541.72;5044129;28;20045;-50
2023/03/13 06:59:31;;;;;;;6.95;2.70;;;;;;;12.74;95.59;99537.81;5052648;28;20045;-52
2023/03/13 07:01:58;;;;;;;10.52;2.80;;;;;;;12.85;95.17;99548.72;5047310;28;20107;-50
2023/03/13 07:04:24;;;;;;;10.88;2.88;;;;;;;12.77;94.92;99537.41;5052478;28;20075;-49
2023/03/13 07:06:51;;;;;;;9.43;3.00;;;;;;;12.76;95.28;99533.13;5039179;28;20049;-52
2023/03/13 07:09:18;;;;;;;8.77;2.83;;;;;;;12.78;95.07;99528.41;5052381;28;20053;-53
2023/03/13 07:11:46;;;;;;;10.02;3.05;;;;;;;12.87;93.71;99530.69;5047338;28;20067;-50
2023/03/13 07:14:13;;;;;;;10.40;3.20;;;;;;;12.82;94.19;99534.97;5051695;28;20118;-53
2023/03/13 07:16:44;;;;;;;12.95;3.50;;;;;;;12.91;93.60;99538.28;5055816;28;20052;-52
2023/03/13 07:19:11;;;;;;;10.25;2.95;;;;;;;12.89;93.26;99538.50;5051687;28;20499;-50
2023/03/13 07:21:38;;;;;;;9.45;2.90;;;;;;;12.92;93.59;99531.97;5056102;28;20084;-53
2023/03/13 07:24:05;;;;;;;9.63;2.80;;;;;;;12.97;92.48;99532.16;5051209;28;20405;-53
2023/03/13 07:26:31;;;;;;;9.82;3.10;;;;;;;13.04;91.32;99522.38;5055306;28;20209;-56
2023/03/13 07:28:58;;;;;;;10.07;3.03;;;;;;;13.00;91.90;99540.56;5051362;28;20067;-53
2023/03/13 07:31:25;;;;;;;11.50;3.10;;;;;;;13.14;89.95;99525.47;5052459;28;20095;-52
2023/03/13 07:33:55;;;;;;;12.82;3.10;;;;;;;13.08;89.98;99518.31;5055940;28;20048;-53
2023/03/13 07:36:22;;;;;;;11.13;3.28;;;;;;;13.10;90.00;99502.94;5051259;28;20118;-50
2023/03/13 07:38:50;;;;;;;14.68;3.53;;;;;;;13.03;90.49;99510.09;5055165;28;20037;-52
2023/03/13 07:41:18;;;;;;;14.43;3.33;;;;;;;13.05;90.35;99505.38;5051185;28;20107;-51
2023/03/13 07:43:45;;;;;;;13.38;3.50;;;;;;;13.10;89.59;99508.28;5055374;28;20445;-50
2023/03/13 07:46:17;;;;;;;13.07;3.30;;;;;;;13.17;88.89;99505.59;5046516;28;20443;-50
2023/03/13 07:48:44;;;;;;;;;;;;;;;13.20;88.41;99502.56;5055967;28;20123;-52
2023/03/13 07:51:15;;;;;;;18.52;3.97;;;;;;;13.09;88.78;99501.28;5051231;28;19920;-52
2023/03/13 07:53:44;;;;;;;12.90;3.80;;;;;;;13.05;89.17;99498.22;5042593;28;20135;-53
2023/03/13 07:56:13;;;;;;;13.60;3.30;;;;;;;13.18;87.62;99501.94;5038375;28;20080;-53
2023/03/13 07:58:41;;;;;;;12.95;4.03;;;;;;;13.39;85.70;99509.81;5047200;28;20437;-50
2023/03/13 08:01:13;;;;;;;10.98;3.40;;;;;;;13.47;85.32;99505.31;5003711;28;20036;-51
2023/03/13 08:03:39;;;;;;;14.00;3.70;;;;;;;13.47;85.15;99499.97;5052604;28;20553;-53
2023/03/13 08:06:10;;;;;;;16.48;3.60;;;;;;;13.49;84.85;99481.94;5037712;28;20063;-52
2023/03/13 08:08:37;;;;;;;15.63;3.45;;;;;;;13.33;85.94;99499.13;5040893;28;20110;-50
2023/03/13 08:11:10;;;;;;;16.52;4.72;;;;;;;13.28;86.28;99505.03;5050724;28;20135;-49
2023/03/13 08:13:37;;;;;;;17.50;4.18;;;;;;;13.34;86.31;99498.13;5045227;28;20523;-51
2023/03/13 08:16:08;;;;;;;9.95;3.72;;;;;;;13.25;86.94;99508.91;5054037;28;20446;-50
2023/03/13 08:18:37;;;;;;;13.57;4.07;;;;;;;13.30;85.76;99494.16;5045436;28;20445;-50
2023/03/13 08:21:06;;;;;;;14.10;3.55;;;;;;;13.20;86.56;99499.88;4988115;28;20581;-52
2023/03/13 08:23:34;;;;;;;16.65;3.50;;;;;;;13.20;86.22;99503.38;5033998;28;20509;-52
2023/03/13 08:26:05;;;;;;;15.13;3.70;;;;;;;13.21;86.70;99501.53;5046160;28;20406;-51
2023/03/13 08:28:31;;;;;;;16.17;3.70;;;;;;;13.19;86.44;99503.59;5045012;28;20089;-51
2023/03/13 08:30:58;;;;;;;15.45;4.10;;;;;;;13.26;85.54;99499.06;5045821;28;20068;-52
2023/03/13 08:33:25;;;;;;;12.02;4.00;;;;;;;13.36;85.89;99499.53;5065170;28;20094;-52
2023/03/13 08:35:51;;;;;;;18.58;4.60;;;;;;;13.26;86.58;99501.72;4998521;28;20960;-50
2023/03/13 08:38:18;;;;;;;15.18;3.80;;;;;;;13.28;86.17;99499.72;5030264;28;20049;-52
2023/03/13 08:40:45;;;;;;;18.45;5.63;;;;;;;13.31;86.74;99491.34;5045497;28;20449;-49
2023/03/13 08:43:11;;;;;;;16.35;4.00;;;;;;;13.28;86.75;99498.88;5045944;28;20033;-51
2023/03/13 08:45:38;;;;;;;19.00;4.15;;;;;;;13.30;87.02;99499.50;5053210;28;20520;-52
2023/03/13 08:48:05;;;;;;;16.75;4.50;;;;;;;13.29;87.76;99501.34;5057015;28;20044;-51
2023/03/13 08:50:32;;;;;;;14.45;3.45;;;;;;;13.44;86.54;99511.84;5002463;28;20198;-51
2023/03/13 08:52:59;;;;;;;17.65;4.15;;;;;;;13.46;87.91;99490.31;4996678;28;20359;-53
2023/03/13 08:55:26;;;;;;;17.42;4.25;;;;;;;13.47;86.71;99487.47;5038983;28;20427;-51
2023/03/13 08:57:52;;;;;;;14.10;4.25;;;;;;;13.47;87.21;99492.78;5051056;28;20045;-52
2023/03/13 09:00:19;;;;;;;13.98;3.78;;;;;;;13.54;87.05;99498.94;5037887;28;20041;-52
2023/03/13 09:02:46;;;;;;;19.08;4.20;;;;;;;13.53;87.41;99497.31;5025288;28;20045;-50
2023/03/13 09:05:13;;;;;;;14.13;3.70;;;;;;;13.48;88.24;99491.78;5013498;28;20045;-51
2023/03/13 09:07:39;;;;;;;15.43;3.67;;;;;;;13.45;88.84;99489.53;5005304;28;20049;-50
2023/03/13 09:10:06;;;;;;;15.50;3.60;;;;;;;13.55;88.54;99481.13;5061736;28;20136;-49
2023/03/13 09:12:33;;;;;;;15.57;4.15;;;;;;;13.43;89.71;99481.72;5052742;28;20179;-49
2023/03/13 09:15:00;;;;;;;11.48;3.33;;;;;;;13.54;89.00;99487.47;5037706;28;21931;-52
2023/03/13 09:17:27;;;;;;;18.35;4.55;;;;;;;13.41;91.18;99472.31;5048824;28;20048;-50
2023/03/13 09:19:53;;;;;;;14.48;3.42;;;;;;;13.36;91.46;99464.09;5053736;28;20052;-53
2023/03/13 09:22:28;;;;;;;14.80;4.38;;;;;;;13.38;91.89;99470.84;5016878;28;20101;-50
2023/03/13 09:24:54;;;;;;;15.25;4.57;;;;;;;13.49;91.30;99465.97;5021337;28;20163;-51
2023/03/13 09:27:21;;;;;;;14.80;4.28;;;;;;;13.48;91.57;99445.66;5019917;28;20939;-50
2023/03/13 09:29:48;;;;;;;15.57;3.97;;;;;;;13.47;91.43;99458.16;5031662;28;20568;-52
2023/03/13 09:32:15;;;;;;;15.85;4.40;;;;;;;13.51;91.71;99450.59;4964976;28;20862;-51
2023/03/13 09:34:42;;;;;;;15.35;4.70;;;;;;;13.49;91.77;99449.97;4985883;28;20162;-55
2023/03/13 09:37:09;;;;;;;12.45;3.80;;;;;;;13.54;92.18;99453.66;5023346;28;20094;-52
2023/03/13 09:39:35;;;;;;;14.02;4.13;;;;;;;13.51;91.88;99438.06;5037371;28;20073;-52
2023/03/13 09:42:14;;;;;;;13.07;4.25;;;;;;;13.61;91.10;99454.47;5038482;28;20059;-54
2023/03/13 09:44:55;;;;;;;13.35;4.53;;;;;;;13.61;91.34;99435.84;5037040;28;20131;-53
2023/03/13 09:47:27;;;;;;;14.38;4.53;;;;;;;13.59;91.72;99432.56;4967747;28;20053;-51
2023/03/13 09:50:02;;;;;;;13.63;4.00;;;;;;;13.67;91.67;99428.84;5043174;28;20060;-50
2023/03/13 09:52:38;;;;;;;16.27;4.55;;;;;;;13.73;90.64;99429.88;5016111;28;20067;-50
2023/03/13 09:55:14;;;;;;;12.15;3.88;;;;;;;13.81;90.59;99440.34;5040401;28;20068;-51
2023/03/13 09:57:50;;;;;;;15.65;4.35;;;;;;;13.97;90.53;99437.25;5032629;28;20132;-50
2023/03/13 10:00:23;;;;;;;16.90;3.75;;;;;;;14.11;88.66;99431.88;5018081;28;20060;-53
2023/03/13 10:02:56;;;;;;;12.60;4.07;;;;;;;14.66;86.51;99427.00;4980546;28;20546;-52
2023/03/13 10:05:27;;;;;;;15.38;4.25;;;;;;;14.67;86.34;99430.47;5025683;28;20040;-52
2023/03/13 10:08:00;;;;;;;14.75;3.70;;;;;;;14.73;85.24;99442.97;5038588;28;20083;-50
2023/03/13 10:10:39;;;;;;;12.05;3.97;;;;;;;14.74;85.12;99407.25;5041812;28;20135;-51
2023/03/13 10:13:17;;;;;;;16.33;4.38;;;;;;;14.88;84.13;99402.63;5020002;28;20044;-49
2023/03/13 10:15:50;;;;;;;9.02;2.90;;;;;;;14.74;83.84;99397.38;5003651;28;20052;-51
2023/03/13 10:18:21;;;;;;;14.35;3.47;;;;;;;14.70;84.47;99398.03;5005722;28;20113;-52
2023/03/13 10:20:50;;;;;;;8.95;3.13;;;;;;;14.81;83.83;99400.00;5037730;28;20057;-53
2023/03/13 10:23:26;;;;;;;15.63;3.35;;;;;;;14.81;83.08;99389.34;5042447;28;20060;-52
2023/03/13 10:25:53;;;;;;;9.55;2.80;;;;;;;14.83;81.79;99394.47;5039439;28;20049;-53
2023/03/13 10:28:21;;;;;;;14.75;4.03;;;;;;;14.81;83.17;99385.81;5026095;28;20071;-52
2023/03/13 10:30:51;;;;;;;10.98;3.03;;;;;;;15.26;81.56;99381.22;5014654;28;20041;-53
2023/03/13 10:33:24;;;;;;;10.10;2.65;;;;;;;15.10;81.37;99369.22;5022526;28;20139;-53
2023/03/13 10:36:06;;;;;;;9.68;2.58;;;;;;;15.20;81.46;99379.41;5038272;28;20037;-49
2023/03/13 10:38:45;;;;;;;10.32;3.00;;;;;;;15.12;80.42;99377.00;5041580;28;20048;-53
2023/03/13 10:41:25;;;;;;;8.95;2.95;;;;;;;15.09;81.04;99374.78;5036127;28;20044;-52
2023/03/13 10:43:57;;;;;;;11.35;2.80;;;;;;;15.18;80.76;99378.00;4969643;28;20499;-52
2023/03/13 10:46:26;;;;;;;11.85;2.75;;;;;;;15.27;79.83;99368.69;5034723;28;20037;-51
2023/03/13 10:48:55;;;;;;;8.65;2.63;;;;;;;15.22;81.08;99363.97;5026685;28;20037;-53
2023/03/13 10:51:29;;;;;;;8.65;2.97;;;;;;;15.20;79.62;99366.03;5046707;28;20045;-53
2023/03/13 10:53:56;;;;;;;7.40;2.53;;;;;;;15.18;79.66;99353.97;5067158;28;20056;-55
2023/03/13 10:56:29;;;;;;;6.47;2.78;;;;;;;15.22;79.85;99369.31;5031124;28;20120;-51
2023/03/13 10:58:56;;;;;;;11.50;2.88;;;;;;;15.38;79.34;99353.78;4983469;28;20052;-48
2023/03/13 11:01:27;;;;;;;12.60;2.80;;;;;;;15.40;79.05;99349.03;5043788;28;20118;-47
2023/03/13 11:03:56;;;;;;;5.55;1.92;;;;;;;15.32;78.81;99355.47;5021882;28;20525;-48
2023/03/13 11:09:19;;;;;;;15.35;2.90;;;;;;;15.26;78.50;99351.00;5080765;27;20404;-52
2023/03/13 11:11:48;;;;;;;;;;;;;;;15.15;78.31;99355.19;5041220;28;20044;-53
2023/03/13 11:14:20;;;;;;;8.77;2.15;;;;;;;15.34;77.16;99338.19;4996227;28;19928;-53
2023/03/13 11:16:49;;;;;;;9.27;2.60;;;;;;;15.38;78.04;99332.41;5062839;28;20174;-51
2023/03/13 11:19:28;;;;;;;8.13;2.28;;;;;;;15.36;77.58;99337.97;5055132;28;20421;-50
2023/03/13 11:22:09;;;;;;;12.73;3.00;;;;;;;15.50;77.35;99328.00;5034593;28;20159;-52
2023/03/13 11:24:44;;;;;;;12.50;2.78;;;;;;;15.50;76.90;99309.28;5061704;28;20050;-53
2023/03/13 11:27:35;;;;;;;5.57;2.10;;;;;;;15.48;76.95;99314.00;5022849;28;20094;-54
2023/03/13 11:30:39;;;;;;;6.65;2.50;;;;;;;15.42;75.90;99291.66;5001225;28;20505;-48
2023/03/13 11:33:30;;;;;;;8.82;2.28;;;;;;;15.58;76.32;99302.81;5062517;28;20056;-49
2023/03/13 11:36:04;;;;;;;7.30;2.28;;;;;;;15.63;74.68;99316.34;5042223;28;20819;-49
2023/03/13 11:38:35;;;;;;;7.75;2.10;;;;;;;15.59;74.49;99310.63;5050130;28;20055;-51
2023/03/13 11:41:17;;;;;;;7.85;2.30;;;;;;;15.57;74.20;99285.16;5061679;28;20126;-50
2023/03/13 11:44:09;;;;;;;5.00;2.00;;;;;;;15.70;73.40;99309.88;5057673;28;20044;-49
2023/03/13 11:49:43;;;;;;;7.40;2.08;;;;;;;19.16;61.37;99285.22;5059463;28;20421;-50
2023/03/13 11:52:50;;;;;;;6.00;2.13;;;;;;;20.59;56.54;99275.41;4953949;28;20045;-49
2023/03/13 11:55:42;;;;;;;6.82;2.30;;;;;;;19.64;57.36;99274.84;4978264;28;20045;-52
2023/03/13 11:58:29;;;;;;;6.22;1.77;;;;;;;17.83;64.23;99272.91;5036380;28;20045;-50